createdAt,value
2018-04-08T00:01:07.427Z,11.26
2018-04-08T00:03:35.784Z,11.23
2018-04-08T00:06:04.218Z,11.25
2018-04-08T00:08:31.798Z,11.41
2018-04-08T00:10:59.382Z,11.35
2018-04-08T00:13:27.013Z,11.32
2018-04-08T00:15:54.593Z,11.26
2018-04-08T00:18:22.172Z,11.17
2018-04-08T00:20:49.750Z,11.14
2018-04-08T00:23:17.331Z,10.98
2018-04-08T00:25:44.946Z,11.10
2018-04-08T00:28:13.435Z,11.21
2018-04-08T00:30:41.932Z,11.19
2018-04-08T00:33:09.512Z,11.14
2018-04-08T00:35:38.000Z,11.08
2018-04-08T00:38:06.359Z,11.04
2018-04-08T00:40:33.935Z,11.01
2018-04-08T00:43:02.297Z,11.12
2018-04-08T00:45:30.676Z,11.06
2018-04-08T00:47:58.276Z,11.09
2018-04-08T00:50:25.860Z,10.97
2018-04-08T00:52:54.379Z,11.02
2018-04-08T00:55:22.731Z,11.04
2018-04-08T00:57:51.130Z,11.09
2018-04-08T01:00:19.424Z,11.03
2018-04-08T01:02:47.819Z,11.04
2018-04-08T01:05:16.172Z,11.11
2018-04-08T01:07:44.578Z,11.09
2018-04-08T01:10:12.638Z,11.04
2018-04-08T01:12:41.125Z,10.95
2018-04-08T01:15:09.503Z,10.95
2018-04-08T01:17:37.863Z,10.88
2018-04-08T01:20:05.477Z,10.84
2018-04-08T01:22:33.059Z,10.87
2018-04-08T01:25:00.669Z,10.83
2018-04-08T01:27:28.288Z,10.87
2018-04-08T01:29:55.887Z,10.84
2018-04-08T01:32:23.491Z,10.77
2018-04-08T01:34:51.076Z,10.79
2018-04-08T01:37:18.703Z,10.86
2018-04-08T01:39:46.280Z,10.82
2018-04-08T01:42:14.774Z,10.91
2018-04-08T01:44:42.367Z,10.89
2018-04-08T01:47:09.983Z,10.84
2018-04-08T01:49:37.570Z,10.85
2018-04-08T01:52:05.193Z,10.79
2018-04-08T01:54:32.803Z,10.78
2018-04-08T01:57:00.391Z,10.64
2018-04-08T01:59:28.011Z,10.67
2018-04-08T02:01:55.592Z,10.62
2018-04-08T02:04:23.201Z,10.50
2018-04-08T02:06:50.819Z,10.53
2018-04-08T02:09:18.404Z,10.41
2018-04-08T02:11:45.985Z,10.36
2018-04-08T02:14:13.560Z,10.30
2018-04-08T02:16:41.170Z,10.22
2018-04-08T02:19:08.752Z,10.21
2018-04-08T02:21:36.331Z,10.16
2018-04-08T02:24:03.915Z,10.09
2018-04-08T02:26:31.527Z,10.01
2018-04-08T02:28:59.099Z,9.96
2018-04-08T02:31:26.707Z,9.98
2018-04-08T02:33:54.344Z,9.89
2018-04-08T02:36:21.920Z,9.82
2018-04-08T02:38:49.495Z,9.83
2018-04-08T02:41:17.077Z,9.71
2018-04-08T02:43:44.659Z,9.77
2018-04-08T02:46:12.242Z,9.79
2018-04-08T02:48:39.812Z,9.80
2018-04-08T02:51:07.424Z,9.81
2018-04-08T02:53:35.012Z,9.82
2018-04-08T02:56:02.588Z,9.86
2018-04-08T02:58:30.166Z,9.76
2018-04-08T03:00:57.740Z,9.60
2018-04-08T03:03:25.323Z,9.65
2018-04-08T03:05:52.909Z,9.53
2018-04-08T03:08:20.499Z,9.53
2018-04-08T03:10:48.082Z,9.53
2018-04-08T03:13:15.693Z,9.41
2018-04-08T03:15:43.272Z,9.43
2018-04-08T03:18:10.843Z,9.55
2018-04-08T03:20:38.423Z,9.58
2018-04-08T03:23:06.006Z,9.58
2018-04-08T03:25:33.597Z,9.55
2018-04-08T03:28:01.171Z,9.56
2018-04-08T03:30:28.752Z,9.46
2018-04-08T03:32:56.331Z,9.50
2018-04-08T03:35:23.915Z,9.52
2018-04-08T03:37:51.498Z,9.48
2018-04-08T03:40:19.116Z,9.45
2018-04-08T03:42:46.690Z,9.33
2018-04-08T03:45:14.267Z,9.39
2018-04-08T03:47:41.848Z,9.45
2018-04-08T03:50:09.428Z,9.39
2018-04-08T03:52:37.013Z,9.27
2018-04-08T03:55:04.591Z,9.16
2018-04-08T03:57:32.172Z,9.15
2018-04-08T03:59:59.760Z,9.04
2018-04-08T04:02:27.339Z,9.09
2018-04-08T04:04:54.920Z,9.08
2018-04-08T04:07:22.497Z,9.12
2018-04-08T04:09:50.071Z,9.01
2018-04-08T04:12:17.686Z,8.92
2018-04-08T04:14:45.258Z,8.98
2018-04-08T04:17:12.870Z,8.89
2018-04-08T04:19:52.200Z,8.93
2018-04-08T04:22:31.582Z,8.90
2018-04-08T04:25:10.709Z,8.83
2018-04-08T04:27:38.294Z,8.83
2018-04-08T04:30:05.899Z,8.94
2018-04-08T04:32:33.507Z,8.92
2018-04-08T04:35:01.127Z,8.89
2018-04-08T04:37:28.703Z,8.82
2018-04-08T04:39:57.052Z,8.99
2018-04-08T04:42:24.664Z,8.87
2018-04-08T04:44:52.278Z,8.89
2018-04-08T04:47:19.887Z,8.75
2018-04-08T04:49:47.686Z,8.80
2018-04-08T04:52:15.402Z,8.97
2018-04-08T04:54:43.032Z,8.98
2018-04-08T04:57:10.643Z,9.08
2018-04-08T04:59:38.219Z,9.03
2018-04-08T05:02:05.823Z,9.06
2018-04-08T05:04:33.404Z,9.20
2018-04-08T05:07:01.028Z,9.19
2018-04-08T05:09:28.606Z,9.19
2018-04-08T05:11:56.284Z,9.23
2018-04-08T05:14:23.935Z,9.24
2018-04-08T05:16:51.507Z,9.38
2018-04-08T05:19:19.113Z,9.40
2018-04-08T05:21:46.686Z,9.49
2018-04-08T05:24:14.290Z,9.50
2018-04-08T05:26:41.876Z,9.50
2018-04-08T05:29:09.491Z,9.57
2018-04-08T05:31:37.084Z,9.61
2018-04-08T05:34:04.687Z,9.70
2018-04-08T05:36:32.268Z,9.72
2018-04-08T05:38:59.888Z,9.75
2018-04-08T05:41:27.471Z,9.87
2018-04-08T05:43:55.054Z,9.90
2018-04-08T05:46:22.664Z,9.89
2018-04-08T05:48:50.242Z,10.06
2018-04-08T05:51:17.846Z,10.12
2018-04-08T05:53:45.435Z,10.20
2018-04-08T05:56:13.015Z,10.27
2018-04-08T05:58:40.633Z,10.30
2018-04-08T06:01:08.220Z,10.30
2018-04-08T06:03:35.814Z,10.41
2018-04-08T06:06:03.398Z,10.51
2018-04-08T06:08:30.984Z,10.60
2018-04-08T06:10:58.563Z,10.71
2018-04-08T06:13:26.145Z,10.72
2018-04-08T06:15:53.727Z,10.82
2018-04-08T06:18:21.308Z,10.92
2018-04-08T06:20:48.896Z,10.96
2018-04-08T06:23:16.474Z,11.08
2018-04-08T06:25:44.101Z,11.12
2018-04-08T06:28:11.687Z,11.27
2018-04-08T06:30:39.276Z,11.37
2018-04-08T06:33:06.872Z,11.50
2018-04-08T06:35:34.491Z,11.49
2018-04-08T06:38:02.121Z,11.58
2018-04-08T06:40:29.724Z,11.65
2018-04-08T06:42:57.330Z,11.78
2018-04-08T06:45:24.979Z,11.80
2018-04-08T06:47:52.590Z,11.84
2018-04-08T06:50:20.197Z,11.88
2018-04-08T06:52:47.793Z,11.98
2018-04-08T06:55:15.376Z,12.06
2018-04-08T06:57:42.951Z,12.11
2018-04-08T07:00:10.596Z,12.23
2018-04-08T07:02:38.186Z,12.18
2018-04-08T07:05:05.801Z,12.27
2018-04-08T07:07:33.422Z,12.41
2018-04-08T07:10:01.015Z,12.50
2018-04-08T07:12:28.603Z,12.64
2018-04-08T07:14:57.002Z,12.65
2018-04-08T07:17:24.659Z,12.67
2018-04-08T07:19:52.239Z,12.69
2018-04-08T07:22:19.819Z,12.86
2018-04-08T07:24:47.508Z,12.91
2018-04-08T07:27:15.119Z,13.05
2018-04-08T07:29:42.732Z,13.08
2018-04-08T07:32:10.315Z,13.21
2018-04-08T07:34:37.923Z,13.32
2018-04-08T07:37:05.507Z,13.43
2018-04-08T07:39:33.131Z,13.55
2018-04-08T07:42:00.740Z,13.70
2018-04-08T07:44:28.354Z,13.82
2018-04-08T07:46:55.939Z,13.98
2018-04-08T07:49:23.607Z,14.09
2018-04-08T07:51:51.192Z,14.21
2018-04-08T07:54:18.803Z,14.35
2018-04-08T07:56:46.418Z,14.43
2018-04-08T07:59:14.080Z,14.42
2018-04-08T08:01:41.716Z,14.71
2018-04-08T08:04:09.299Z,14.78
2018-04-08T08:06:36.888Z,14.82
2018-04-08T08:09:04.636Z,15.01
2018-04-08T08:11:32.211Z,15.02
2018-04-08T08:13:59.823Z,15.13
2018-04-08T08:16:27.409Z,15.22
2018-04-08T08:18:55.107Z,15.41
2018-04-08T08:21:22.691Z,15.40
2018-04-08T08:23:50.308Z,15.45
2018-04-08T08:26:17.906Z,15.55
2018-04-08T08:28:45.759Z,15.69
2018-04-08T08:31:13.375Z,15.80
2018-04-08T08:33:40.958Z,15.96
2018-04-08T08:36:08.567Z,16.16
2018-04-08T08:38:36.146Z,16.21
2018-04-08T08:41:03.750Z,16.36
2018-04-08T08:43:31.335Z,16.34
2018-04-08T08:45:58.938Z,16.33
2018-04-08T08:48:26.525Z,16.42
2018-04-08T08:50:54.107Z,16.51
2018-04-08T08:53:21.687Z,16.70
2018-04-08T08:55:49.280Z,16.70
2018-04-08T08:58:16.890Z,16.80
2018-04-08T09:00:44.471Z,16.91
2018-04-08T09:03:12.079Z,16.99
2018-04-08T09:05:39.667Z,17.17
2018-04-08T09:08:07.346Z,17.26
2018-04-08T09:10:35.103Z,17.19
2018-04-08T09:13:02.687Z,17.35
2018-04-08T09:15:30.263Z,17.42
2018-04-08T09:17:57.842Z,17.48
2018-04-08T09:20:32.751Z,17.59
2018-04-08T09:26:03.604Z,17.57
2018-04-08T09:28:31.187Z,17.61
2018-04-08T09:30:58.768Z,18.00
2018-04-08T09:33:26.382Z,18.03
2018-04-08T09:35:53.964Z,17.77
2018-04-08T09:38:21.688Z,17.91
2018-04-08T09:40:49.275Z,18.05
2018-04-08T09:43:16.854Z,18.14
2018-04-08T09:45:44.443Z,18.27
2018-04-08T09:48:12.029Z,18.34
2018-04-08T09:50:39.654Z,18.38
2018-04-08T09:53:07.235Z,18.39
2018-04-08T09:55:34.820Z,18.32
2018-04-08T09:58:03.029Z,18.37
2018-04-08T10:00:36.359Z,18.53
2018-04-08T10:06:04.683Z,18.82
2018-04-08T10:08:32.365Z,18.97
2018-04-08T10:10:59.974Z,18.85
2018-04-08T10:13:27.552Z,18.99
2018-04-08T10:15:55.132Z,18.95
2018-04-08T10:18:22.724Z,18.98
2018-04-08T10:20:50.906Z,19.17
2018-04-08T10:23:18.500Z,19.03
2018-04-08T10:25:46.164Z,19.13
2018-04-08T10:28:13.775Z,19.10
2018-04-08T10:30:41.356Z,19.06
2018-04-08T10:33:08.936Z,19.24
2018-04-08T10:35:37.079Z,19.18
2018-04-08T10:38:04.684Z,19.35
2018-04-08T10:40:32.276Z,19.12
2018-04-08T10:42:59.863Z,19.35
2018-04-08T10:45:27.439Z,19.25
2018-04-08T10:47:55.025Z,19.49
2018-04-08T10:50:22.647Z,19.67
2018-04-08T10:52:50.231Z,19.78
2018-04-08T10:55:17.840Z,19.68
2018-04-08T10:57:45.421Z,19.68
2018-04-08T11:00:13.069Z,19.62
2018-04-08T11:02:40.652Z,19.75
2018-04-08T11:05:08.364Z,19.93
2018-04-08T11:07:35.983Z,19.96
2018-04-08T11:10:04.535Z,20.02
2018-04-08T11:12:32.218Z,20.09
2018-04-08T11:14:59.799Z,20.20
2018-04-08T11:17:27.370Z,20.21
2018-04-08T11:19:54.956Z,20.28
2018-04-08T11:22:22.615Z,20.35
2018-04-08T11:24:50.221Z,20.52
2018-04-08T11:27:17.836Z,20.42
2018-04-08T11:29:45.424Z,20.70
2018-04-08T11:32:13.057Z,20.61
2018-04-08T11:34:40.674Z,20.51
2018-04-08T11:37:08.319Z,20.52
2018-04-08T11:39:35.978Z,20.69
2018-04-08T11:42:04.272Z,20.74
2018-04-08T11:44:31.861Z,20.51
2018-04-08T11:46:59.480Z,20.61
2018-04-08T11:49:27.056Z,20.38
2018-04-08T11:51:54.675Z,20.63
2018-04-08T11:54:22.634Z,20.81
2018-04-08T11:56:50.293Z,20.92
2018-04-08T11:59:17.863Z,20.83
2018-04-08T12:01:45.568Z,20.91
2018-04-08T12:04:13.147Z,21.13
2018-04-08T12:06:40.757Z,21.25
2018-04-08T12:09:08.349Z,21.23
2018-04-08T12:11:35.975Z,21.17
2018-04-08T12:14:03.553Z,21.16
2018-04-08T12:16:31.136Z,20.99
2018-04-08T12:18:58.719Z,20.87
2018-04-08T12:21:26.308Z,20.68
2018-04-08T12:23:53.880Z,20.68
2018-04-08T12:26:21.462Z,20.84
2018-04-08T12:28:49.052Z,20.92
2018-04-08T12:31:16.683Z,20.93
2018-04-08T12:33:44.247Z,21.05
2018-04-08T12:36:11.826Z,21.24
2018-04-08T12:38:39.435Z,21.37
2018-04-08T12:41:07.016Z,21.27
2018-04-08T12:43:34.671Z,21.24
2018-04-08T12:46:02.252Z,21.30
2018-04-08T12:48:29.901Z,21.16
2018-04-08T12:50:57.485Z,21.23
2018-04-08T12:53:25.238Z,21.43
2018-04-08T12:55:52.844Z,21.53
2018-04-08T12:58:20.483Z,21.70
2018-04-08T13:00:48.113Z,21.67
2018-04-08T13:03:15.778Z,21.84
2018-04-08T13:05:43.359Z,21.86
2018-04-08T13:08:10.928Z,21.66
2018-04-08T13:10:39.062Z,21.66
2018-04-08T13:13:06.649Z,21.68
2018-04-08T13:15:34.244Z,21.84
2018-04-08T13:18:01.828Z,21.79
2018-04-08T13:20:29.406Z,21.86
2018-04-08T13:22:57.076Z,21.73
2018-04-08T13:25:24.661Z,21.54
2018-04-08T13:27:52.260Z,21.43
2018-04-08T13:30:19.840Z,21.44
2018-04-08T13:32:47.425Z,21.55
2018-04-08T13:35:15.242Z,21.48
2018-04-08T13:37:42.824Z,21.40
2018-04-08T13:40:10.410Z,21.20
2018-04-08T13:42:38.025Z,21.29
2018-04-08T13:45:05.612Z,21.48
2018-04-08T13:47:33.219Z,21.68
2018-04-08T13:50:01.758Z,21.64
2018-04-08T13:52:29.363Z,21.61
2018-04-08T13:54:57.043Z,21.44
2018-04-08T13:57:24.656Z,21.62
2018-04-08T13:59:52.329Z,21.51
2018-04-08T14:02:19.947Z,21.50
2018-04-08T14:04:47.533Z,21.69
2018-04-08T14:07:15.116Z,21.81
2018-04-08T14:09:42.731Z,21.80
2018-04-08T14:12:10.312Z,21.77
2018-04-08T14:14:37.899Z,21.74
2018-04-08T14:17:06.353Z,21.89
2018-04-08T14:19:33.943Z,21.86
2018-04-08T14:22:01.604Z,21.90
2018-04-08T14:24:29.255Z,22.04
2018-04-08T14:26:56.936Z,22.05
2018-04-08T14:29:24.549Z,22.31
2018-04-08T14:31:52.139Z,22.15
2018-04-08T14:34:19.727Z,21.87
2018-04-08T14:36:47.314Z,21.80
2018-04-08T14:39:14.938Z,21.85
2018-04-08T14:41:42.604Z,21.64
2018-04-08T14:44:10.189Z,21.80
2018-04-08T14:46:37.787Z,21.86
2018-04-08T14:49:06.415Z,21.84
2018-04-08T14:51:34.003Z,21.77
2018-04-08T14:54:01.689Z,21.98
2018-04-08T14:56:29.300Z,21.97
2018-04-08T14:58:56.883Z,22.11
2018-04-08T15:01:24.475Z,22.30
2018-04-08T15:03:52.059Z,22.18
2018-04-08T15:06:19.847Z,22.13
2018-04-08T15:08:47.448Z,22.15
2018-04-08T15:11:15.066Z,22.57
2018-04-08T15:13:42.658Z,22.89
2018-04-08T15:16:10.278Z,23.02
2018-04-08T15:18:37.871Z,23.18
2018-04-08T15:21:05.453Z,23.12
2018-04-08T15:23:33.131Z,23.04
2018-04-08T15:26:00.710Z,23.09
2018-04-08T15:28:28.293Z,23.26
2018-04-08T15:30:55.878Z,23.28
2018-04-08T15:33:23.476Z,23.08
2018-04-08T15:35:51.072Z,23.39
2018-04-08T15:38:18.753Z,23.34
2018-04-08T15:40:46.349Z,23.07
2018-04-08T15:43:13.936Z,23.20
2018-04-08T15:45:41.514Z,23.35
2018-04-08T15:48:09.145Z,23.17
2018-04-08T15:50:36.732Z,23.22
2018-04-08T15:53:04.423Z,22.95
2018-04-08T15:55:32.016Z,23.10
2018-04-08T15:57:59.602Z,22.68
2018-04-08T16:00:27.188Z,22.59
2018-04-08T16:02:54.771Z,22.14
2018-04-08T16:05:23.339Z,22.12
2018-04-08T16:07:50.935Z,21.75
2018-04-08T16:10:18.522Z,21.59
2018-04-08T16:12:46.816Z,21.42
2018-04-08T16:15:14.516Z,21.50
2018-04-08T16:17:42.115Z,21.31
2018-04-08T16:20:09.812Z,21.03
2018-04-08T16:22:37.406Z,21.01
2018-04-08T16:25:05.063Z,20.49
2018-04-08T16:27:32.643Z,20.25
2018-04-08T16:30:00.239Z,20.12
2018-04-08T16:32:27.885Z,19.97
2018-04-08T16:34:55.472Z,19.80
2018-04-08T16:37:23.056Z,19.40
2018-04-08T16:39:50.737Z,19.38
2018-04-08T16:42:18.325Z,19.28
2018-04-08T16:44:45.962Z,19.18
2018-04-08T16:47:13.548Z,18.97
2018-04-08T16:49:41.163Z,18.65
2018-04-08T16:52:08.757Z,18.61
2018-04-08T16:54:36.380Z,18.62
2018-04-08T16:57:04.009Z,18.44
2018-04-08T16:59:31.604Z,18.31
2018-04-08T17:01:59.272Z,18.33
2018-04-08T17:04:26.889Z,18.34
2018-04-08T17:06:54.509Z,18.11
2018-04-08T17:09:22.263Z,18.08
2018-04-08T17:11:49.877Z,17.82
2018-04-08T17:14:17.504Z,17.74
2018-04-08T17:16:45.091Z,17.66
2018-04-08T17:19:12.679Z,17.66
2018-04-08T17:21:40.259Z,17.59
2018-04-08T17:24:08.575Z,17.38
2018-04-08T17:26:36.167Z,17.22
2018-04-08T17:29:03.748Z,17.02
2018-04-08T17:31:31.356Z,16.80
2018-04-08T17:33:58.950Z,16.58
2018-04-08T17:36:26.566Z,16.69
2018-04-08T17:38:54.159Z,16.71
2018-04-08T17:41:21.776Z,16.51
2018-04-08T17:43:49.367Z,16.51
2018-04-08T17:46:16.958Z,16.31
2018-04-08T17:48:44.543Z,16.20
2018-04-08T17:51:12.178Z,16.04
2018-04-08T17:53:39.768Z,15.95
2018-04-08T17:56:07.467Z,15.68
2018-04-08T17:58:35.054Z,15.59
2018-04-08T18:01:07.451Z,15.49
2018-04-08T18:03:35.962Z,15.39
2018-04-08T18:06:03.548Z,15.28
2018-04-08T18:08:31.718Z,15.13
2018-04-08T18:10:59.311Z,14.96
2018-04-08T18:13:26.943Z,14.84
2018-04-08T18:15:54.563Z,14.70
2018-04-08T18:18:22.166Z,14.57
2018-04-08T18:20:49.859Z,14.49
2018-04-08T18:23:17.522Z,14.40
2018-04-08T18:25:45.187Z,14.35
2018-04-08T18:28:12.852Z,14.21
2018-04-08T18:30:40.494Z,14.18
2018-04-08T18:33:08.171Z,14.03
2018-04-08T18:35:35.798Z,13.92
2018-04-08T18:38:03.766Z,13.82
2018-04-08T18:40:32.000Z,13.79
2018-04-08T18:43:01.657Z,13.69
2018-04-08T18:45:30.382Z,13.49
2018-04-08T18:48:00.011Z,13.39
2018-04-08T18:50:30.403Z,13.25
2018-04-08T18:53:00.193Z,13.18
2018-04-08T18:55:30.568Z,13.07
2018-04-08T18:57:59.662Z,13.01
2018-04-08T19:00:31.742Z,12.94
2018-04-08T19:03:01.385Z,12.87
2018-04-08T19:05:29.032Z,12.82
2018-04-08T19:07:56.628Z,12.76
2018-04-08T19:10:24.248Z,12.67
2018-04-08T19:12:51.844Z,12.61
2018-04-08T19:15:21.533Z,12.58
2018-04-08T19:17:54.727Z,12.59
2018-04-08T19:20:22.313Z,12.64
2018-04-08T19:22:49.904Z,12.60
2018-04-08T19:25:17.496Z,12.48
2018-04-08T19:27:45.090Z,12.40
2018-04-08T19:30:18.192Z,12.39
2018-04-08T19:32:45.880Z,12.45
2018-04-08T19:35:13.473Z,12.61
2018-04-08T19:37:41.104Z,12.44
2018-04-08T19:40:08.765Z,12.34
2018-04-08T19:42:36.377Z,12.32
2018-04-08T19:45:04.037Z,12.25
2018-04-08T19:47:31.657Z,12.51
2018-04-08T19:49:59.245Z,12.43
2018-04-08T19:52:28.572Z,12.26
2018-04-08T19:55:21.200Z,12.18
2018-04-08T19:57:48.820Z,12.07
2018-04-08T20:00:16.407Z,11.99
2018-04-08T20:02:44.033Z,12.11
2018-04-08T20:05:11.632Z,12.16
2018-04-08T20:07:39.244Z,11.98
2018-04-08T20:10:06.883Z,11.96
2018-04-08T20:12:34.468Z,11.89
2018-04-08T20:15:02.090Z,11.79
2018-04-08T20:17:29.680Z,11.74
2018-04-08T20:19:57.355Z,11.70
2018-04-08T20:22:25.508Z,11.60
2018-04-08T20:24:53.124Z,11.43
2018-04-08T20:27:20.793Z,11.49
2018-04-08T20:29:48.379Z,11.40
2018-04-08T20:32:15.966Z,11.51
2018-04-08T20:34:43.953Z,11.36
2018-04-08T20:37:11.790Z,11.27
2018-04-08T20:39:40.651Z,11.14
2018-04-08T20:42:08.344Z,11.09
2018-04-08T20:44:36.400Z,11.10
2018-04-08T20:47:07.383Z,11.15
2018-04-08T20:49:35.357Z,11.14
2018-04-08T20:52:02.997Z,11.07
2018-04-08T20:54:30.635Z,11.02
2018-04-08T20:56:58.959Z,10.99
2018-04-08T20:59:26.547Z,10.84
2018-04-08T21:01:54.153Z,10.80
2018-04-08T21:04:22.042Z,10.67
2018-04-08T21:06:49.640Z,10.58
2018-04-08T21:09:17.465Z,10.53
2018-04-08T21:11:45.123Z,10.57
2018-04-08T21:14:12.742Z,10.56
2018-04-08T21:16:40.569Z,10.45
2018-04-08T21:19:08.160Z,10.35
2018-04-08T21:21:35.748Z,10.26
2018-04-08T21:24:03.436Z,10.29
2018-04-08T21:26:43.546Z,10.26
2018-04-08T21:29:11.291Z,10.24
2018-04-08T21:31:38.935Z,10.31
2018-04-08T21:34:06.609Z,10.40
2018-04-08T21:36:34.391Z,10.47
2018-04-08T21:39:01.978Z,10.20
2018-04-08T21:41:29.579Z,10.04
2018-04-08T21:43:57.273Z,9.95
2018-04-08T21:46:24.976Z,9.85
2018-04-08T21:48:52.812Z,9.74
2018-04-08T21:51:20.395Z,9.88
2018-04-08T21:53:47.992Z,10.01
2018-04-08T21:56:15.615Z,9.82
2018-04-08T21:58:43.264Z,9.73
2018-04-08T22:01:14.823Z,9.60
2018-04-08T22:03:42.408Z,9.53
2018-04-08T22:06:10.018Z,9.45
2018-04-08T22:08:37.601Z,9.38
2018-04-08T22:11:05.323Z,9.38
2018-04-08T22:13:32.899Z,9.55
2018-04-08T22:16:00.479Z,9.57
2018-04-08T22:18:28.060Z,9.43
2018-04-08T22:20:55.736Z,9.32
2018-04-08T22:23:23.398Z,9.23
2018-04-08T22:25:50.967Z,9.16
2018-04-08T22:28:18.591Z,9.16
2018-04-08T22:30:46.171Z,9.08
2018-04-08T22:33:13.756Z,9.01
2018-04-08T22:35:41.339Z,9.00
2018-04-08T22:38:08.920Z,9.09
2018-04-08T22:40:37.210Z,9.20
2018-04-08T22:43:04.795Z,9.03
2018-04-08T22:45:32.451Z,8.88
2018-04-08T22:48:00.163Z,8.77
2018-04-08T22:50:27.751Z,8.72
2018-04-08T22:52:55.328Z,8.62
2018-04-08T22:55:22.915Z,8.56
2018-04-08T22:57:50.495Z,8.87
2018-04-08T23:00:26.883Z,8.75
2018-04-08T23:02:54.516Z,8.79
2018-04-08T23:05:22.173Z,8.60
2018-04-08T23:07:50.547Z,8.47
2018-04-08T23:10:18.131Z,8.39
2018-04-08T23:12:45.735Z,8.32
2018-04-08T23:15:13.313Z,8.28
2018-04-08T23:17:40.947Z,8.22
2018-04-08T23:20:08.532Z,8.20
2018-04-08T23:22:36.159Z,8.18
2018-04-08T23:25:03.784Z,8.23
2018-04-08T23:27:31.395Z,8.14
2018-04-08T23:29:59.012Z,8.08
2018-04-08T23:32:26.595Z,8.00
2018-04-08T23:34:54.212Z,8.03
2018-04-08T23:37:21.899Z,8.01
2018-04-08T23:39:49.515Z,8.00
2018-04-08T23:42:18.055Z,8.05
2018-04-08T23:44:45.669Z,8.11
2018-04-08T23:47:13.254Z,8.03
2018-04-08T23:49:40.874Z,8.11
2018-04-08T23:52:08.452Z,8.25
2018-04-08T23:54:36.079Z,7.99
2018-04-08T23:57:03.706Z,7.94
2018-04-08T23:59:31.427Z,7.87
